Terminal Aerodrome Forecast
Issued by NWS Sterling, VA

Current Version | Previous Version | Graphics & Text | Print | Product List | Glossary On
Versions: 1 2 3 4 5 6 7 8 9 10 11 12 13 14 15 16 17 18 19 20 21
000
FTUS41 KLWX 172000 AAA
TAFDCA
TAF AMD
KDCA 172042Z 1721/1818 10009KT P6SM FEW050 SCT150
     FM180600 09005KT P6SM BKN050
     FM181200 03005KT P6SM BKN050
     FM181700 09005KT P6SM BKN150=

USA.gov is the U.S. government's official web portal to all federal, state and local government web resources and services.